METAR Data
IDs: Format: Raw Decoded Include TAF

Data at: 1715 UTC 21 Sep 2018

KBEA 211655Z AUTO 17012KT 10SM SCT034 SCT041 31/24 A2994 RMK AO2 T03090239
KBEA 211635Z AUTO 18013G18KT 10SM SCT028 SCT034 SCT043 31/24 A2994 RMK AO2 T03060240
KBEA 211615Z AUTO 17012G15KT 10SM BKN030 BKN036 BKN050 30/24 A2995 RMK AO2 T02970242
KBEA 211555Z AUTO 17011KT 10SM SCT022 SCT029 BKN037 30/25 A2995 RMK AO2 T02950245
KBEA 211535Z AUTO 16015KT 10SM BKN020 BKN025 29/25 A2994 RMK AO2 T02920251
KBEA 211515Z AUTO 18013G18KT 10SM OVC016 28/25 A2994 RMK AO2 T02820249
KBEA 211455Z AUTO 16012G16KT 10SM BKN014 BKN020 29/26 A2993 RMK AO2 T02860259
KBEA 211435Z AUTO 15009KT 10SM CLR 28/26 A2993 RMK AO2 T02800258
KBEA 211415Z AUTO 15006KT 10SM CLR 27/26 A2993 RMK AO2 T02720257
KBEA 211355Z AUTO 15004KT 10SM SCT018 26/25 A2993 RMK AO2 T02640253
KBEA 211335Z AUTO 13005KT 10SM SCT016 SCT021 26/25 A2993 RMK AO2 T02560252
KBEA 211315Z AUTO 12005KT 10SM SCT016 SCT021 SCT041 25/25 A2992 RMK AO2 LTG DSNT NW T02520250
KBEA 211255Z AUTO 12004KT 7SM SCT016 BKN022 BKN032 25/25 A2991 RMK AO2 T02500249
KBEA 211235Z AUTO 10003KT 5SM BR BKN016 BKN022 BKN027 25/25 A2991 RMK AO2 T02500247
KBEA 211215Z AUTO 00000KT 7SM BKN016 BKN023 BKN027 25/25 A2991 RMK AO2 T02490246
KBEA 211155Z AUTO 10003KT 10SM SCT016 25/25 A2991 RMK AO2 70001 T02470245 10260 20245
KBEA 211135Z AUTO 00000KT 7SM CLR 25/24 A2991 RMK AO2 T02450242
KBEA 211115Z AUTO 00000KT 10SM CLR 25/25 A2990 RMK AO2 T02480245
KBEA 211055Z AUTO 12003KT 10SM CLR 25/25 A2989 RMK AO2 T02480245
KBEA 211035Z AUTO 13003KT 10SM CLR 25/25 A2989 RMK AO2 T02500245
KBEA 211015Z AUTO 13004KT 10SM CLR 25/25 A2989 RMK AO2 T02500246
KBEA 210955Z AUTO 13003KT 10SM SCT015 25/25 A2989 RMK AO2 T02510247
KBEA 210935Z AUTO 00000KT 10SM SCT024 25/25 A2990 RMK AO2 T02520248
KBEA 210915Z AUTO 00000KT 10SM SCT016 BKN024 26/25 A2990 RMK AO2 T02550250
KBEA 210855Z AUTO 00000KT 10SM BKN018 BKN022 26/25 A2990 RMK AO2 T02550250
KBEA 210835Z AUTO 14003KT 10SM BKN018 26/25 A2990 RMK AO2 T02550250
KBEA 210815Z AUTO 15004KT 10SM SCT016 26/25 A2990 RMK AO2 T02550250
KBEA 210755Z AUTO 14004KT 10SM CLR 26/25 A2990 RMK AO2 T02550250
KBEA 210735Z AUTO 15004KT 10SM CLR 26/25 A2991 RMK AO2 LTG DSNT NW T02570251
KBEA 210715Z AUTO 16004KT 10SM SCT018 SCT022 26/25 A2991 RMK AO2 T02550251
KBEA 210655Z AUTO 15004KT 10SM BKN018 26/25 A2991 RMK AO2 T02550250
KBEA 210635Z AUTO 14004KT 10SM BKN018 BKN022 26/25 A2992 RMK AO2 T02570251
KBEA 210615Z AUTO 14005KT 10SM BKN018 26/25 A2992 RMK AO2 T02590251
KBEA 210555Z AUTO 12006KT 10SM CLR 26/25 A2992 RMK AO2 T02580250 10277 20258 403200248
KBEA 210535Z AUTO 12006KT 10SM SCT017 SCT025 26/25 A2992 RMK AO2 T02590250
KBEA 210515Z AUTO 12006KT 10SM SCT019 SCT025 26/25 A2993 RMK AO2 T02600250
KBEA 210455Z AUTO 12006KT 10SM SCT019 26/25 A2993 RMK AO2 T02600250
KBEA 210435Z AUTO 11004KT 10SM CLR 26/25 A2993 RMK AO2 T02600250
KBEA 210415Z AUTO 12006KT 10SM CLR 26/25 A2993 RMK AO2 T02600251
KBEA 210355Z AUTO 12005KT 10SM CLR 26/25 A2993 RMK AO2 T02600251
KBEA 210335Z AUTO 12005KT 10SM CLR 26/25 A2993 RMK AO2 T02600251
KBEA 210315Z AUTO 13006KT 10SM CLR 26/25 A2992 RMK AO2 T02610251
KBEA 210255Z AUTO 13007KT 10SM SCT014 26/25 A2992 RMK AO2 T02620251
KBEA 210235Z AUTO 14007KT 10SM CLR 27/25 A2991 RMK AO2 T02650250
KBEA 210215Z AUTO 14007KT 10SM CLR 27/25 A2990 RMK AO2 LTG DSNT SW T02650250
KBEA 210155Z AUTO 14008KT 10SM CLR 27/25 A2990 RMK AO2 T02660250
KBEA 210135Z AUTO 14009G14KT 10SM CLR 27/25 A2988 RMK AO2 LTG DSNT SW T02670250
KBEA 210115Z AUTO 14008KT 10SM SCT025 27/25 A2988 RMK AO2 T02670251
KBEA 210055Z AUTO 13006KT 10SM SCT025 27/25 A2988 RMK AO2 T02680250
KBEA 210035Z AUTO 13007KT 10SM SCT023 27/25 A2989 RMK AO2 T02700250
KBEA 210015Z AUTO 14008KT 10SM SCT050 SCT070 SCT095 27/25 A2989 RMK AO2 T02720250
KBEA 202355Z AUTO 15009KT 10SM -RA SCT036 SCT055 BKN095 28/25 A2989 RMK AO2 T02780246 10320 20278
KBEA 202335Z AUTO 15011G17KT 10SM SCT025 SCT034 29/24 A2989 RMK AO2 T02870242
KBEA 202315Z AUTO 14015G19KT 10SM SCT027 BKN032 SCT041 30/24 A2987 RMK AO2 T02970243
KBEA 202255Z AUTO 13013G18KT 10SM SCT027 SCT036 SCT060 30/25 A2987 RMK AO2 LTG DSNT S T02990247
KBEA 202235Z AUTO 14011G15KT 10SM SCT028 BKN034 OVC095 30/25 A2986 RMK AO2 T03010245
KBEA 202215Z AUTO 14012G18KT 10SM BKN030 BKN038 OVC050 31/24 A2986 RMK AO2 T03060244
KBEA 202155Z AUTO 15013G19KT 10SM BKN038 BKN048 BKN060 31/24 A2986 RMK AO2 T03110239
KBEA 202135Z AUTO 15013G20KT 10SM SCT038 SCT065 SCT080 31/24 A2986 RMK AO2 LTG DSNT NE T03130235
KBEA 202115Z AUTO 17014G19KT 10SM SCT024 SCT031 SCT038 31/23 A2986 RMK AO2 LTG DSNT E T03140234
KBEA 202055Z AUTO 13011G18KT 10SM SCT024 SCT031 31/25 A2987 RMK AO2 LTG DSNT N AND NE T03070254
KBEA 202035Z AUTO 14014G18KT 10SM CLR 30/25 A2988 RMK AO2 T03020249
KBEA 202015Z AUTO 14014KT 10SM SCT038 SCT044 SCT050 31/25 A2988 RMK AO2 LTG DSNT N AND NE T03070246
KBEA 201955Z AUTO 16016G22KT 10SM VCTS BKN037 BKN044 BKN060 31/24 A2988 RMK AO2 LTG DSNT N AND NE T03140242
KBEA 201935Z AUTO 16010G14KT 10SM BKN034 BKN044 BKN110 31/24 A2989 RMK AO2 LTG DSNT NE T03070241
KBEA 201915Z AUTO 14008KT 10SM BKN034 BKN060 BKN070 30/25 A2990 RMK AO2 LTG DSNT NE T03000246
KBEA 201855Z AUTO 16006KT 10SM SCT022 SCT047 SCT070 30/25 A2992 RMK AO2 LTG DSNT N T02960250
KBEA 201835Z AUTO 17010KT 10SM SCT024 SCT042 SCT055 30/25 A2992 RMK AO2 T02970251
KBEA 201815Z AUTO 15011KT 10SM CLR 30/25 A2993 RMK AO2 LTG DSNT N T02990250
KBEA 201755Z AUTO 15008KT 10SM SCT027 SCT036 SCT045 29/25 A2994 RMK AO2 P0001 60001 T02920252 10309 20250
KBEA 201735Z AUTO 14011G17KT 7SM -RA BKN027 BKN036 OVC090 28/25 A2995 RMK AO2 P0001 T02780251
KBEA 201715Z AUTO 16010KT 10SM BKN029 BKN041 BKN049 30/24 A2995 RMK AO2 T03000240
KBEA 201655Z AUTO 17010G14KT 10SM BKN027 BKN035 BKN050 31/25 A2995 RMK AO2 T03060248
KBEA 201635Z AUTO 18011G15KT 10SM BKN027 BKN038 30/24 A2995 RMK AO2 T02990243
KBEA 201615Z AUTO 14012KT 10SM SCT021 BKN029 BKN040 30/25 A2995 RMK AO2 T03000247
KBEA 201555Z AUTO 18009KT 10SM BKN016 BKN023 BKN031 29/25 A2996 RMK AO2 T02860249
KBEA 201535Z AUTO 16007KT 10SM BKN011 BKN018 28/26 A2995 RMK AO2 LTG DSNT N T02800256
KBEA 201515Z AUTO 15004KT 10SM BKN009 27/26 A2995 RMK AO2 LTG DSNT W T02730257
KBEA 201455Z AUTO 14006KT 10SM CLR 27/26 A2995 RMK AO2 T02700257
KBEA 201435Z AUTO 15005KT 10SM CLR 27/26 A2995 RMK AO2 T02660255
KBEA 201415Z AUTO 14003KT 10SM SCT018 26/25 A2994 RMK AO2 T02640253
KBEA 201355Z AUTO 00000KT 10SM SCT018 SCT024 26/26 A2994 RMK AO2 T02600255
KBEA 201335Z AUTO 00000KT 10SM SCT020 SCT024 26/25 A2993 RMK AO2 T02560252
KBEA 201315Z AUTO 00000KT 10SM SCT012 SCT042 26/25 A2993 RMK AO2 T02550251
KBEA 201255Z AUTO 09003KT 10SM SCT012 SCT017 BKN042 25/25 A2992 RMK AO2 LTG DSNT NE AND NW T02520250
KBEA 201235Z AUTO 10003KT 7SM -RA SCT012 SCT021 BKN055 25/25 A2992 RMK AO2 LTG DSNT NW T02510248
KBEA 201215Z AUTO 09004KT 7SM -RA SCT016 SCT041 SCT060 25/25 A2991 RMK AO2 LTG DSNT NW T02500246
KBEA 201155Z AUTO 00000KT 10SM SCT012 SCT021 SCT027 25/25 A2991 RMK AO2 LTG DSNT NW T02500247 10255 20248
KBEA 201135Z AUTO 15003KT 10SM VCTS SCT012 25/25 A2992 RMK AO2 LTG DSNT S T02500246
KBEA 201115Z AUTO 00000KT 10SM SCT014 25/25 A2991 RMK AO2 T02500246
KBEA 201055Z AUTO 09003KT 10SM CLR 25/25 A2992 RMK AO2 T02480245
KBEA 201035Z AUTO 11003KT 10SM SCT016 25/25 A2990 RMK AO2 LTG DSNT S T02500246
KBEA 201015Z AUTO 00000KT 10SM SCT018 25/25 A2991 RMK AO2 LTG DSNT W T02500246
KBEA 200955Z AUTO 00000KT 10SM CLR 25/25 A2991 RMK AO2 LTG DSNT SW AND W T02500245
KBEA 200935Z AUTO 00000KT 10SM CLR 25/25 A2991 RMK AO2 T02500246
KBEA 200915Z AUTO 00000KT 10SM CLR 25/25 A2991 RMK AO2 T02500246
KBEA 200855Z AUTO 08003KT 10SM CLR 25/25 A2991 RMK AO2 T02480245
KBEA 200835Z AUTO 00000KT 10SM CLR 25/25 A2992 RMK AO2 T02490245
KBEA 200815Z AUTO 00000KT 10SM SCT014 25/25 A2992 RMK AO2 T02510246
KBEA 200755Z AUTO 00000KT 10SM BKN016 BKN095 25/25 A2993 RMK AO2 T02520247
KBEA 200735Z AUTO 00000KT 10SM SCT018 SCT095 25/25 A2993 RMK AO2 T02520246
KBEA 200715Z AUTO 12005KT 10SM SCT018 SCT024 25/25 A2993 RMK AO2 T02510246
KBEA 200655Z AUTO 11003KT 10SM SCT014 SCT021 SCT026 25/25 A2993 RMK AO2 T02520245
KBEA 200635Z AUTO 12004KT 10SM BKN014 BKN020 25/25 A2994 RMK AO2 T02540246
KBEA 200615Z AUTO 13003KT 10SM BKN016 BKN026 BKN035 26/25 A2994 RMK AO2 T02550246
KBEA 200555Z AUTO 13003KT 10SM SCT016 BKN024 BKN033 26/25 A2995 RMK AO2 T02550245 10281 20253 403220220
KBEA 200535Z AUTO 00000KT 10SM SCT016 SCT022 25/25 A2995 RMK AO2 T02530245